createdAt,value
2023-08-08T00:02:01.875Z,3.38
2023-08-08T00:04:28.922Z,3.20
2023-08-08T00:06:55.870Z,3.67
2023-08-08T00:09:22.779Z,3.25
2023-08-08T00:11:50.026Z,3.30
2023-08-08T00:14:16.998Z,3.30
2023-08-08T00:16:43.921Z,3.78
2023-08-08T00:19:10.988Z,3.45
2023-08-08T00:21:37.932Z,3.60
2023-08-08T00:24:05.180Z,3.50
2023-08-08T00:26:32.080Z,3.10
2023-08-08T00:28:58.972Z,3.90
2023-08-08T00:31:26.005Z,3.45
2023-08-08T00:33:53.016Z,3.80
2023-08-08T00:36:19.955Z,3.50
2023-08-08T00:38:46.883Z,3.53
2023-08-08T00:41:13.809Z,3.67
2023-08-08T00:43:40.743Z,3.60
2023-08-08T00:46:08.324Z,3.38
2023-08-08T00:48:35.460Z,3.50
2023-08-08T00:51:02.512Z,3.42
2023-08-08T00:53:32.667Z,4.20
2023-08-08T00:56:00.442Z,3.25
2023-08-08T00:58:28.771Z,3.28
2023-08-08T01:00:58.861Z,3.35
2023-08-08T01:03:25.928Z,3.03
2023-08-08T01:06:11.947Z,3.33
2023-08-08T01:09:10.320Z,3.50
2023-08-08T01:11:38.981Z,3.33
2023-08-08T01:14:08.973Z,3.63
2023-08-08T01:16:36.302Z,3.70
2023-08-08T01:19:06.020Z,3.30
2023-08-08T01:21:41.796Z,3.30
2023-08-08T01:24:24.972Z,3.15
2023-08-08T01:26:52.064Z,3.30
2023-08-08T01:29:19.316Z,3.67
2023-08-08T01:31:46.325Z,3.53
2023-08-08T01:34:13.839Z,3.47
2023-08-08T01:36:50.260Z,3.45
2023-08-08T01:39:23.783Z,3.75
2023-08-08T01:41:51.936Z,4.03
2023-08-08T01:44:19.526Z,3.70
2023-08-08T01:46:47.039Z,3.42
2023-08-08T01:49:14.022Z,3.67
2023-08-08T01:51:40.894Z,4.05
2023-08-08T01:54:07.834Z,3.70
2023-08-08T01:56:34.715Z,3.45
2023-08-08T01:59:02.119Z,3.72
2023-08-08T02:01:29.142Z,3.58
2023-08-08T02:03:56.143Z,3.72
2023-08-08T02:06:23.751Z,3.80
2023-08-08T02:08:50.652Z,3.33
2023-08-08T02:11:17.574Z,3.60
2023-08-08T02:13:44.462Z,5.38
2023-08-08T02:16:11.401Z,3.70
2023-08-08T02:18:41.730Z,3.58
2023-08-08T02:21:09.481Z,3.55
2023-08-08T02:23:36.593Z,3.63
2023-08-08T02:26:03.666Z,3.50
2023-08-08T02:28:30.663Z,3.95
2023-08-08T02:30:57.610Z,3.63
2023-08-08T02:33:24.620Z,3.45
2023-08-08T02:35:51.510Z,4.13
2023-08-08T02:38:18.422Z,3.92
2023-08-08T02:40:45.338Z,3.30
2023-08-08T02:43:12.738Z,3.50
2023-08-08T02:45:39.708Z,3.65
2023-08-08T02:48:07.081Z,3.50
2023-08-08T02:50:34.133Z,3.53
2023-08-08T02:53:01.168Z,3.22
2023-08-08T02:55:28.111Z,3.17
2023-08-08T02:57:55.079Z,3.75
2023-08-08T03:00:22.147Z,4.15
2023-08-08T03:02:49.138Z,3.53
2023-08-08T03:05:16.205Z,3.83
2023-08-08T03:07:43.170Z,3.58
2023-08-08T03:10:10.433Z,3.70
2023-08-08T03:12:39.089Z,3.13
2023-08-08T03:15:07.196Z,3.40
2023-08-08T03:17:34.640Z,3.13
2023-08-08T03:20:04.675Z,3.33
2023-08-08T03:22:31.713Z,3.33
2023-08-08T03:24:59.447Z,3.13
2023-08-08T03:27:26.431Z,3.22
2023-08-08T03:29:53.293Z,3.30
2023-08-08T03:32:20.241Z,3.47
2023-08-08T03:34:47.149Z,3.25
2023-08-08T03:37:14.087Z,3.28
2023-08-08T03:39:41.071Z,3.05
2023-08-08T03:42:08.557Z,3.25
2023-08-08T03:44:35.462Z,3.33
2023-08-08T03:47:17.354Z,3.30
2023-08-08T03:49:45.918Z,3.63
2023-08-08T03:52:13.324Z,3.00
2023-08-08T03:54:40.574Z,3.38
2023-08-08T03:57:07.970Z,3.40
2023-08-08T03:59:34.945Z,3.45
2023-08-08T04:02:02.203Z,3.30
2023-08-08T04:04:29.357Z,3.42
2023-08-08T04:06:56.263Z,2.78
2023-08-08T04:09:23.178Z,2.97
2023-08-08T04:11:50.162Z,2.78
2023-08-08T04:14:17.041Z,3.30
2023-08-08T04:16:44.060Z,2.90
2023-08-08T04:19:10.980Z,3.20
2023-08-08T04:21:37.918Z,3.22
2023-08-08T04:24:05.077Z,3.60
2023-08-08T04:26:31.963Z,3.50
2023-08-08T04:28:58.940Z,3.00
2023-08-08T04:31:27.029Z,3.10
2023-08-08T04:34:02.231Z,2.72
2023-08-08T04:36:30.754Z,3.60
2023-08-08T04:38:57.692Z,3.55
2023-08-08T04:41:24.697Z,3.20
2023-08-08T04:43:51.871Z,3.17
2023-08-08T04:46:19.092Z,3.03
2023-08-08T04:48:46.010Z,3.08
2023-08-08T04:51:12.966Z,2.90
2023-08-08T04:53:39.941Z,2.88
2023-08-08T04:56:06.829Z,2.88
2023-08-08T04:58:33.829Z,3.17
2023-08-08T05:01:00.866Z,2.60
2023-08-08T05:03:27.892Z,3.28
2023-08-08T05:05:54.929Z,3.05
2023-08-08T05:08:21.956Z,2.95
2023-08-08T05:10:48.876Z,3.22
2023-08-08T05:13:15.818Z,3.10
2023-08-08T05:15:42.800Z,2.90
2023-08-08T05:18:09.714Z,3.00
2023-08-08T05:20:36.825Z,3.17
2023-08-08T05:23:03.891Z,2.70
2023-08-08T05:25:31.048Z,2.88
2023-08-08T05:27:58.027Z,3.05
2023-08-08T05:30:25.096Z,3.20
2023-08-08T05:32:52.142Z,2.80
2023-08-08T05:35:19.085Z,2.83
2023-08-08T05:37:46.029Z,2.90
2023-08-08T05:40:12.979Z,3.00
2023-08-08T05:42:40.577Z,3.20
2023-08-08T05:45:08.634Z,2.65
2023-08-08T05:47:35.581Z,2.97
2023-08-08T05:50:03.242Z,2.80
2023-08-08T05:52:30.527Z,2.65
2023-08-08T05:54:57.537Z,2.92
2023-08-08T05:57:24.522Z,2.80
2023-08-08T05:59:51.451Z,3.00
2023-08-08T06:02:18.725Z,3.10
2023-08-08T06:04:46.443Z,2.85
2023-08-08T06:07:13.394Z,3.45
2023-08-08T06:09:40.352Z,3.00
2023-08-08T06:12:08.498Z,2.90
2023-08-08T06:14:35.467Z,2.80
2023-08-08T06:17:02.471Z,2.40
2023-08-08T06:19:29.345Z,3.22
2023-08-08T06:21:56.373Z,2.80
2023-08-08T06:24:23.337Z,2.72
2023-08-08T06:26:50.443Z,2.70
2023-08-08T06:29:17.784Z,2.55
2023-08-08T06:31:44.832Z,2.67
2023-08-08T06:34:11.799Z,2.85
2023-08-08T06:36:39.412Z,2.47
2023-08-08T06:39:06.956Z,2.47
2023-08-08T06:41:34.143Z,2.78
2023-08-08T06:44:01.071Z,2.95
2023-08-08T06:46:28.093Z,2.53
2023-08-08T06:48:59.909Z,2.78
2023-08-08T06:51:27.086Z,2.50
2023-08-08T06:53:54.504Z,2.75
2023-08-08T06:56:21.522Z,2.65
2023-08-08T06:58:49.013Z,2.45
2023-08-08T07:01:16.069Z,2.63
2023-08-08T07:03:43.059Z,2.50
2023-08-08T07:06:11.013Z,2.25
2023-08-08T07:08:40.421Z,2.20
2023-08-08T07:11:07.596Z,2.80
2023-08-08T07:13:34.684Z,2.60
2023-08-08T07:16:01.987Z,2.63
2023-08-08T07:18:29.601Z,2.60
2023-08-08T07:20:57.730Z,2.60
2023-08-08T07:23:24.975Z,2.40
2023-08-08T07:25:52.068Z,2.53
2023-08-08T07:28:19.242Z,2.60
2023-08-08T07:30:46.340Z,2.88
2023-08-08T07:33:14.801Z,2.50
2023-08-08T07:35:41.936Z,2.33
2023-08-08T07:38:09.530Z,2.45
2023-08-08T07:40:37.244Z,2.38
2023-08-08T07:43:04.431Z,2.58
2023-08-08T07:45:31.464Z,2.50
2023-08-08T07:47:58.400Z,2.53
2023-08-08T07:50:25.469Z,2.45
2023-08-08T07:52:52.469Z,2.50
2023-08-08T07:55:19.473Z,2.47
2023-08-08T07:57:46.842Z,2.65
2023-08-08T08:00:14.512Z,2.80
2023-08-08T08:02:44.172Z,2.40
2023-08-08T08:05:12.653Z,2.58
2023-08-08T08:07:40.368Z,2.70
2023-08-08T08:10:11.045Z,2.45
2023-08-08T08:12:38.212Z,2.35
2023-08-08T08:15:06.060Z,2.90
2023-08-08T08:17:33.417Z,2.55
2023-08-08T08:20:00.554Z,2.38
2023-08-08T08:22:27.458Z,2.22
2023-08-08T08:24:54.472Z,2.72
2023-08-08T08:27:21.623Z,2.50
2023-08-08T08:29:49.169Z,2.90
2023-08-08T08:32:16.194Z,2.70
2023-08-08T08:34:43.377Z,2.30
2023-08-08T08:37:10.372Z,2.30
2023-08-08T08:39:37.297Z,2.60
2023-08-08T08:42:06.482Z,2.40
2023-08-08T08:44:33.939Z,2.75
2023-08-08T08:47:05.997Z,3.00
2023-08-08T08:49:33.610Z,2.50
2023-08-08T08:52:06.090Z,2.40
2023-08-08T08:54:34.208Z,3.13
2023-08-08T08:57:01.202Z,2.88
2023-08-08T08:59:28.380Z,2.47
2023-08-08T09:01:56.558Z,2.45
2023-08-08T09:04:24.320Z,2.28
2023-08-08T09:06:53.770Z,2.30
2023-08-08T09:09:23.058Z,2.85
2023-08-08T09:12:02.214Z,2.83
2023-08-08T09:14:29.408Z,2.60
2023-08-08T09:16:57.842Z,2.30
2023-08-08T09:19:25.780Z,2.45
2023-08-08T09:21:54.640Z,2.28
2023-08-08T09:24:21.962Z,2.60
2023-08-08T09:26:48.886Z,2.60
2023-08-08T09:29:16.436Z,2.40
2023-08-08T09:31:43.545Z,2.72
2023-08-08T09:34:10.760Z,2.20
2023-08-08T09:36:38.096Z,2.70
2023-08-08T09:39:06.323Z,2.53
2023-08-08T09:41:33.633Z,2.42
2023-08-08T09:44:01.749Z,2.47
2023-08-08T09:46:34.692Z,2.83
2023-08-08T09:49:02.831Z,2.60
2023-08-08T09:51:30.196Z,2.55
2023-08-08T09:53:58.022Z,2.55
2023-08-08T09:56:26.627Z,2.88
2023-08-08T09:58:54.584Z,2.30
2023-08-08T10:01:22.576Z,2.50
2023-08-08T10:03:53.101Z,2.40
2023-08-08T10:06:20.750Z,2.30
2023-08-08T10:08:48.293Z,2.33
2023-08-08T10:11:16.139Z,2.60
2023-08-08T10:13:51.940Z,2.40
2023-08-08T10:16:19.650Z,2.40
2023-08-08T10:19:04.929Z,1.90
2023-08-08T10:21:44.830Z,2.15
2023-08-08T10:24:12.523Z,2.35
2023-08-08T10:27:01.623Z,2.40
2023-08-08T10:29:30.961Z,2.30
2023-08-08T10:32:07.194Z,2.10
2023-08-08T10:34:47.925Z,3.05
2023-08-08T10:37:19.135Z,1.75
2023-08-08T10:40:00.954Z,2.40
2023-08-08T10:42:29.867Z,2.40
2023-08-08T10:45:02.376Z,2.17
2023-08-08T10:47:35.199Z,2.25
2023-08-08T10:50:10.242Z,2.40
2023-08-08T10:52:57.301Z,2.95
2023-08-08T10:55:37.207Z,2.63
2023-08-08T10:58:13.836Z,1.77
2023-08-08T11:00:41.852Z,1.77
2023-08-08T11:03:10.213Z,1.52
2023-08-08T11:05:39.473Z,2.45
2023-08-08T11:08:08.280Z,1.92
2023-08-08T11:10:40.784Z,1.88
2023-08-08T11:13:09.466Z,2.10
2023-08-08T11:15:38.107Z,1.90
2023-08-08T11:18:06.925Z,2.05
2023-08-08T11:20:36.441Z,2.35
2023-08-08T11:23:06.815Z,1.90
2023-08-08T11:25:33.853Z,3.10
2023-08-08T11:28:01.624Z,3.45
2023-08-08T11:30:38.181Z,3.67
2023-08-08T11:35:36.242Z,2.58
2023-08-08T11:38:05.585Z,2.72
2023-08-08T11:40:33.453Z,2.30
2023-08-08T11:43:01.075Z,1.83
2023-08-08T11:45:29.254Z,2.28
2023-08-08T11:47:57.615Z,2.70
2023-08-08T11:50:28.531Z,2.60
2023-08-08T11:52:56.759Z,2.40
2023-08-08T11:55:30.827Z,2.50
2023-08-08T11:58:00.906Z,2.40
2023-08-08T12:00:31.720Z,2.08
2023-08-08T12:03:02.272Z,2.13
2023-08-08T12:05:29.731Z,2.03
2023-08-08T12:07:57.085Z,2.17
2023-08-08T12:10:27.075Z,1.95
2023-08-08T12:13:01.053Z,2.00
2023-08-08T12:15:36.491Z,2.00
2023-08-08T12:18:04.827Z,2.00
2023-08-08T12:20:33.023Z,2.17
2023-08-08T12:23:01.170Z,2.20
2023-08-08T12:25:28.675Z,1.90
2023-08-08T12:27:55.926Z,1.90
2023-08-08T12:30:23.025Z,2.30
2023-08-08T12:32:50.064Z,1.90
2023-08-08T12:35:17.984Z,2.17
2023-08-08T12:37:45.029Z,2.20
2023-08-08T12:40:13.972Z,2.13
2023-08-08T12:42:41.008Z,1.90
2023-08-08T12:45:08.644Z,2.03
2023-08-08T12:47:38.504Z,1.83
2023-08-08T12:50:07.340Z,2.00
2023-08-08T12:52:34.871Z,1.95
2023-08-08T12:55:02.019Z,1.75
2023-08-08T12:57:29.285Z,1.35
2023-08-08T12:59:56.383Z,1.45
2023-08-08T13:02:23.395Z,1.60
2023-08-08T13:04:50.464Z,1.88
2023-08-08T13:07:17.822Z,1.77
2023-08-08T13:09:44.746Z,1.70
2023-08-08T13:12:11.688Z,1.75
2023-08-08T13:14:38.639Z,3.35
2023-08-08T13:17:05.682Z,2.40
2023-08-08T13:19:32.605Z,2.40
2023-08-08T13:21:59.871Z,2.53
2023-08-08T13:24:27.140Z,2.53
2023-08-08T13:26:54.078Z,2.00
2023-08-08T13:29:24.004Z,2.20
2023-08-08T13:31:50.968Z,2.22
2023-08-08T13:34:17.958Z,1.67
2023-08-08T13:36:44.897Z,1.40
2023-08-08T13:39:11.905Z,1.10
2023-08-08T13:41:39.091Z,1.20
2023-08-08T13:44:06.222Z,1.00
2023-08-08T13:46:33.286Z,1.10
2023-08-08T13:49:00.243Z,1.52
2023-08-08T13:51:27.213Z,2.50
2023-08-08T13:53:54.147Z,1.10
2023-08-08T13:56:21.754Z,1.55
2023-08-08T13:58:48.669Z,1.60
2023-08-08T14:01:15.735Z,1.55
2023-08-08T14:03:42.846Z,1.65
2023-08-08T14:06:10.039Z,1.90
2023-08-08T14:08:37.028Z,1.80
2023-08-08T14:11:03.989Z,2.00
2023-08-08T14:13:30.871Z,2.03
2023-08-08T14:15:57.784Z,2.00
2023-08-08T14:18:24.860Z,2.40
2023-08-08T14:20:51.779Z,2.20
2023-08-08T14:23:18.686Z,2.00
2023-08-08T14:25:45.593Z,2.50
2023-08-08T14:28:12.537Z,2.30
2023-08-08T14:30:39.502Z,2.35
2023-08-08T14:33:06.493Z,2.40
2023-08-08T14:35:33.459Z,2.25
2023-08-08T14:38:00.432Z,2.00
2023-08-08T14:40:29.027Z,2.40
2023-08-08T14:42:56.678Z,2.05
2023-08-08T14:45:25.488Z,1.77
2023-08-08T14:47:52.440Z,1.80
2023-08-08T14:50:19.696Z,1.90
2023-08-08T14:52:46.890Z,2.13
2023-08-08T14:55:14.040Z,2.30
2023-08-08T14:57:41.027Z,2.33
2023-08-08T15:00:10.437Z,2.22
2023-08-08T15:02:37.504Z,2.10
2023-08-08T15:05:05.160Z,2.05
2023-08-08T15:07:32.181Z,2.20
2023-08-08T15:09:59.083Z,2.22
2023-08-08T15:12:26.156Z,1.90
2023-08-08T15:14:53.242Z,2.20
2023-08-08T15:17:20.166Z,1.75
2023-08-08T15:19:47.227Z,2.10
2023-08-08T15:22:14.148Z,2.20
2023-08-08T15:24:41.101Z,2.38
2023-08-08T15:27:08.011Z,1.90
2023-08-08T15:29:34.958Z,1.90
2023-08-08T15:32:01.969Z,1.58
2023-08-08T15:34:28.941Z,1.58
2023-08-08T15:36:59.458Z,1.95
2023-08-08T15:39:26.715Z,1.83
2023-08-08T15:41:53.849Z,2.10
2023-08-08T15:44:20.865Z,2.03
2023-08-08T15:46:48.660Z,2.00
2023-08-08T15:49:16.425Z,1.80
2023-08-08T15:51:43.625Z,1.55
2023-08-08T15:54:10.612Z,3.08
2023-08-08T15:56:39.359Z,1.80
2023-08-08T15:59:07.075Z,1.20
2023-08-08T16:01:34.823Z,1.25
2023-08-08T16:04:01.902Z,1.45
2023-08-08T16:06:30.120Z,1.63
2023-08-08T16:08:57.134Z,1.70
2023-08-08T16:11:24.124Z,2.30
2023-08-08T16:13:51.207Z,1.80
2023-08-08T16:16:18.166Z,1.77
2023-08-08T16:18:45.050Z,1.90
2023-08-08T16:21:12.348Z,1.92
2023-08-08T16:23:39.378Z,1.80
2023-08-08T16:26:06.443Z,1.95
2023-08-08T16:28:33.550Z,1.60
2023-08-08T16:31:00.627Z,1.85
2023-08-08T16:33:27.637Z,2.17
2023-08-08T16:35:58.401Z,1.60
2023-08-08T16:38:25.466Z,1.35
2023-08-08T16:40:52.398Z,2.00
2023-08-08T16:43:19.374Z,1.92
2023-08-08T16:45:46.324Z,1.55
2023-08-08T16:48:13.233Z,2.03
2023-08-08T16:50:40.184Z,1.90
2023-08-08T16:53:07.711Z,1.50
2023-08-08T16:55:34.663Z,1.40
2023-08-08T16:58:01.578Z,1.60
2023-08-08T17:00:28.525Z,1.55
2023-08-08T17:02:55.501Z,1.80
2023-08-08T17:05:22.501Z,1.70
2023-08-08T17:07:49.543Z,1.58
2023-08-08T17:10:16.491Z,2.65
2023-08-08T17:12:43.574Z,2.60
2023-08-08T17:15:10.901Z,2.05
2023-08-08T17:17:37.966Z,1.75
2023-08-08T17:20:06.529Z,1.23
2023-08-08T17:22:34.552Z,1.65
2023-08-08T17:25:01.578Z,1.55
2023-08-08T17:27:29.147Z,2.22
2023-08-08T17:29:56.103Z,1.75
2023-08-08T17:32:23.067Z,1.40
2023-08-08T17:34:50.121Z,1.30
2023-08-08T17:37:17.127Z,1.30
2023-08-08T17:39:44.099Z,1.63
2023-08-08T17:42:11.209Z,2.17
2023-08-08T17:44:38.129Z,2.30
2023-08-08T17:47:05.054Z,3.00
2023-08-08T17:49:31.985Z,2.60
2023-08-08T17:51:59.285Z,2.67
2023-08-08T17:54:26.557Z,2.53
2023-08-08T17:56:53.659Z,2.22
2023-08-08T17:59:21.109Z,2.20
2023-08-08T18:01:48.362Z,1.90
2023-08-08T18:04:15.353Z,5.75
2023-08-08T18:06:42.335Z,5.13
2023-08-08T18:09:09.298Z,4.63
2023-08-08T18:11:39.648Z,4.85
2023-08-08T18:14:08.263Z,4.38
2023-08-08T18:16:37.055Z,5.40
2023-08-08T18:19:05.091Z,4.40
2023-08-08T18:21:33.102Z,4.03
2023-08-08T18:24:00.303Z,4.68
2023-08-08T18:26:27.926Z,5.38
2023-08-08T18:28:55.018Z,4.97
2023-08-08T18:31:22.173Z,5.10
2023-08-08T18:33:49.222Z,9.55
2023-08-08T18:36:16.121Z,3.97
2023-08-08T18:38:43.789Z,4.00
2023-08-08T18:41:11.346Z,3.42
2023-08-08T18:43:38.294Z,3.40
2023-08-08T18:46:06.950Z,3.53
2023-08-08T18:48:33.983Z,2.70
2023-08-08T18:51:01.195Z,7.90
2023-08-08T18:53:28.273Z,14.98
2023-08-08T18:55:55.173Z,10.57
2023-08-08T18:58:22.143Z,7.05
2023-08-08T19:00:49.979Z,8.60
2023-08-08T19:03:18.749Z,11.10
2023-08-08T19:05:46.188Z,10.85
2023-08-08T19:08:13.262Z,9.10
2023-08-08T19:10:40.344Z,9.05
2023-08-08T19:13:09.980Z,9.27
2023-08-08T19:15:38.245Z,8.80
2023-08-08T19:18:05.389Z,8.45
2023-08-08T19:20:32.338Z,9.65
2023-08-08T19:22:59.514Z,12.45
2023-08-08T19:25:26.575Z,11.23
2023-08-08T19:27:53.536Z,13.15
2023-08-08T19:30:22.656Z,7.57
2023-08-08T19:32:50.135Z,6.78
2023-08-08T19:35:17.230Z,5.47
2023-08-08T19:37:48.321Z,5.10
2023-08-08T19:40:16.866Z,4.28
2023-08-08T19:42:44.132Z,5.50
2023-08-08T19:45:11.018Z,3.70
2023-08-08T19:47:38.263Z,3.40
2023-08-08T19:50:06.120Z,3.67
2023-08-08T19:52:33.245Z,3.50
2023-08-08T19:55:00.168Z,3.78
2023-08-08T19:57:27.184Z,4.57
2023-08-08T19:59:54.865Z,4.30
2023-08-08T20:02:23.393Z,3.95
2023-08-08T20:04:52.414Z,6.45
2023-08-08T20:07:19.392Z,7.93
2023-08-08T20:09:46.405Z,4.75
2023-08-08T20:12:13.370Z,4.70
2023-08-08T20:14:40.403Z,4.50
2023-08-08T20:17:07.298Z,3.03
2023-08-08T20:19:35.042Z,3.28
2023-08-08T20:22:03.174Z,3.60
2023-08-08T20:24:30.812Z,2.80
2023-08-08T20:26:57.776Z,2.60
2023-08-08T20:29:24.843Z,3.05
2023-08-08T20:31:51.870Z,3.15
2023-08-08T20:34:18.821Z,2.83
2023-08-08T20:36:45.762Z,3.30
2023-08-08T20:39:13.609Z,3.30
2023-08-08T20:41:43.583Z,3.70
2023-08-08T20:44:10.583Z,3.83
2023-08-08T20:46:37.964Z,3.90
2023-08-08T20:49:05.189Z,4.50
2023-08-08T20:51:32.444Z,4.10
2023-08-08T20:54:00.453Z,3.03
2023-08-08T20:56:27.343Z,4.28
2023-08-08T20:58:54.561Z,3.83
2023-08-08T21:01:21.523Z,3.20
2023-08-08T21:03:49.676Z,4.47
2023-08-08T21:06:16.646Z,3.40
2023-08-08T21:08:44.898Z,3.38
2023-08-08T21:11:11.801Z,3.25
2023-08-08T21:13:38.758Z,3.63
2023-08-08T21:16:06.253Z,2.70
2023-08-08T21:18:33.234Z,3.70
2023-08-08T21:21:02.871Z,3.30
2023-08-08T21:23:31.332Z,3.08
2023-08-08T21:25:58.381Z,2.92
2023-08-08T21:28:25.989Z,2.45
2023-08-08T21:30:53.176Z,2.58
2023-08-08T21:33:21.171Z,2.47
2023-08-08T21:35:52.497Z,2.50
2023-08-08T21:38:19.447Z,2.45
2023-08-08T21:40:47.258Z,2.22
2023-08-08T21:43:14.175Z,2.10
2023-08-08T21:45:41.429Z,1.95
2023-08-08T21:48:08.355Z,2.30
2023-08-08T21:50:35.264Z,2.25
2023-08-08T21:53:02.175Z,2.10
2023-08-08T21:55:29.144Z,1.90
2023-08-08T21:57:56.028Z,2.13
2023-08-08T22:00:22.946Z,1.75
2023-08-08T22:02:50.184Z,2.08
2023-08-08T22:05:17.257Z,1.70
2023-08-08T22:07:45.403Z,1.98
2023-08-08T22:10:12.612Z,1.88
2023-08-08T22:12:39.530Z,2.10
2023-08-08T22:15:07.787Z,1.90
2023-08-08T22:17:34.702Z,1.77
2023-08-08T22:20:01.781Z,1.90
2023-08-08T22:22:28.665Z,1.73
2023-08-08T22:24:55.584Z,1.63
2023-08-08T22:27:22.477Z,1.95
2023-08-08T22:29:49.353Z,1.75
2023-08-08T22:32:16.245Z,1.63
2023-08-08T22:34:43.093Z,2.00
2023-08-08T22:37:09.993Z,1.98
2023-08-08T22:39:36.868Z,1.90
2023-08-08T22:42:04.080Z,1.83
2023-08-08T22:44:32.366Z,2.03
2023-08-08T22:46:59.539Z,2.05
2023-08-08T22:49:26.758Z,2.40
2023-08-08T22:51:53.658Z,2.72
2023-08-08T22:54:20.518Z,1.88
2023-08-08T22:56:47.443Z,2.00
2023-08-08T22:59:14.377Z,1.88
2023-08-08T23:01:41.453Z,1.75
2023-08-08T23:04:08.453Z,2.10
2023-08-08T23:06:35.336Z,2.03
2023-08-08T23:09:02.219Z,1.90
2023-08-08T23:11:29.072Z,2.00
2023-08-08T23:13:56.282Z,1.60
2023-08-08T23:16:23.231Z,1.90
2023-08-08T23:18:50.141Z,1.88
2023-08-08T23:21:17.075Z,1.80
2023-08-08T23:23:44.045Z,1.50
2023-08-08T23:26:10.991Z,1.77
2023-08-08T23:28:37.985Z,1.52
2023-08-08T23:31:05.416Z,1.92
2023-08-08T23:33:32.312Z,1.60
2023-08-08T23:35:59.337Z,2.17
2023-08-08T23:38:26.412Z,2.08
2023-08-08T23:40:53.323Z,2.00
2023-08-08T23:43:20.229Z,2.50
2023-08-08T23:45:47.161Z,2.10
2023-08-08T23:48:14.165Z,2.33
2023-08-08T23:50:41.161Z,2.47
2023-08-08T23:53:08.173Z,2.47
2023-08-08T23:55:35.337Z,2.50
2023-08-08T23:58:02.268Z,2.67
